Weather at Three Rivers Homestead Airport

Public forecast

Using degrees Celsius for public forecast. Weather courtesy of forecast.io.

Closest aviation weather report (METAR) to Three Rivers Homestead Airport

Closest report is Geraldton Airport, 321.8 nm (596.0 km) SW.

2024/05/18 22:30 (retrieved 36 minutes ago)

YGEL 182230Z AUTO 02009KT 9999 // NCD 15/04 Q1023 RF000/0000

Closest aviation forecast (TAF) to Three Rivers Homestead Airport

Closest forecast is Geraldton Airport, 321.8 nm (596.0 km) SW.

2024/05/18 22:00 Ammendment (retrieved 1 hour ago)

TAF AMD YGEL 182205Z 1822/1912 04016KT CAVOK FM190100 05018G30KT CAVOK FM190400 05014KT CAVOK